x

Virginia Beach 64 Nm East Of Virginia Beach, Va (44014) Wave Buoy

5:50 - Sat 19th Aug 2017 All times are EDT. -4 hours from GMT.

  • Sig Wave height 3.6ft
  • Swell Direction
  • Peak Period 6s
  • Average Period 5s
  • Wind
    7mph, 9mph gusts
  • Sea Temp 77°f
  • Luft Temp 78°f
  • Sea Pressure 1011.7mb
  • Virginia Beach 64 Nm East Of Virginia Beach, Va
  • Virginia Beach 64 Nm East Of Virginia Beach, Va

More Historic Weather Station data

Upgrade to MSW Pro to gain access to the past 30 days of data for over 8000 Wavebouys and Weather Stations around the globe.

Join

Comparision Forecast

View Surf forecast
   
Sa 08/19 5:50 3.5ft 6s 5s 7 9 mph 1011.7mb 77f 78f
4:50 3.5ft 6s 4s 4 9 mph 1011.5mb 77f 78f
3:50 3.5ft 5s 5s 4 9 mph 1012.1mb 77f 78f
2:50 3.5ft 5s 4s 9 11 mph 1012.5mb 77f 79f
1:50 3.5ft 5s 4s 18 22 mph 1012.2mb 77f 80f
12:50 3ft 5s 4s 16 18 mph 1012.4mb 77f 80f
Fr 08/18 11:50 3.5ft 5s 4s 16 18 mph 1013mb 77f 80f
10:50 3.5ft 4s 4s 18 20 mph 1013.4mb 78f 80f
9:50 3.5ft 5s 4s 16 20 mph 1013.5mb 78f 80f
8:50 3.5ft 4s 4s 18 20 mph 1012mb 78f 80f
7:50 3.5ft 4s 4s 18 20 mph 1010.8mb 78f 80f
5:50 3.5ft 4s 4s 18 22 mph 1010.9mb 78f 80f
4:50 3ft 9s 4s 16 18 mph 1011.8mb 78f 80f
3:50 2.5ft 10s 4s 16 16 mph 1012.5mb 78f 80f
2:50 2.5ft 7s 4s 16 18 mph 1013mb 78f 80f
1:50 2.5ft 8s 4s 13 16 mph 1013.2mb 78f 80f
12:50 2.5ft 8s 4s 13 13 mph 1014.2mb 78f 80f
11:50 2.5ft 8s 4s 11 11 mph 1014.8mb 78f 79f
10:50 2.5ft 8s 5s 11 13 mph 1014.9mb 78f 79f
9:50 2.5ft 8s 5s 11 11 mph 1014.7mb 77f 79f
8:50 2.5ft 8s 5s 11 11 mph 1015mb 77f 79f
7:50 2.5ft 8s 4s 9 11 mph 1014.9mb 77f 78f
6:50 2.5ft 7s 4s 7 9 mph 1014.9mb 78f 78f
5:50 2.5ft 6s 5s 9 11 mph 1014.6mb 78f 78f
4:50 2.5ft 8s 5s 9 11 mph 1014.7mb 78f 78f
3:50 2ft 6s 5s 9 11 mph 1014.7mb 79f 79f
2:50 2.5ft 7s 5s 9 11 mph 1015mb 79f 79f
1:50 2ft 7s 5s 11 13 mph 1015.2mb 79f 79f
12:50 2ft 8s 5s 11 13 mph 1015.8mb 79f 79f
Do 08/17 11:50 2ft 8s 6s 9 11 mph 1016.3mb 79f 79f
10:50 2ft 7s 6s 7 9 mph 1016.8mb 79f 79f
9:50 2ft 6s 6s 7 9 mph 1016.7mb 80f 79f
8:50 2ft 8s 6s 9 11 mph 1016.4mb 80f 79f
7:50 2ft 8s 6s 7 9 mph 1016.3mb 80f 78f
6:50 2ft 8s 6s 7 9 mph 1016.5mb 80f 78f
5:50 2.5ft 7s 6s 7 9 mph 1016.5mb 80f 78f
4:50 2.5ft 7s 6s 7 9 mph 1016.5mb 80f 78f
3:50 2.5ft 7s 6s 7 9 mph 1016.5mb 80f 77f
2:50 2.5ft 7s 6s 4 7 mph 1017.4mb 80f 77f
1:50 2.5ft 7s 6s 4 7 mph 1018.2mb 80f 77f
12:50 2.5ft 7s 6s 4 7 mph 1018.4mb 79f 77f
11:50 2.5ft 8s 6s 4 4 mph 1018.4mb 79f 77f
10:50 2.5ft 8s 6s 4 7 mph 1018.6mb 78f 77f
9:50 2.5ft 8s 6s 2 4 mph 1018.5mb 77f 77f
8:50 2.5ft 8s 6s 2 2 mph 1018.2mb 77f 76f
7:50 3ft 8s 6s 2 4 mph 1018.1mb 76f 76f
6:50 2.5ft 8s 6s  -  2 mph 1017.6mb 76f 76f
5:50 2.5ft 8s 6s 2 2 mph 1017.4mb 77f 75f
4:50 2.5ft 7s 6s 2 2 mph 1016.8mb 77f 76f
3:50 2.5ft 8s 6s  -  2 mph 1017mb 77f 76f
2:50 2.5ft 8s 6s 2 2 mph 1017.1mb 77f 76f
1:50 2.5ft 8s 6s 2 2 mph 1017.1mb 77f 76f
12:50 2.5ft 8s 6s 4 4 mph 1017.4mb 77f 76f
Mi 08/16 11:50 2ft 7s 5s 7 7 mph 1017.6mb 77f 76f
10:50 2.5ft 8s 6s 7 7 mph 1017.5mb 78f 77f
9:50 2.5ft 7s 6s 9 9 mph 1017.1mb 78f 77f
8:50 2.5ft 7s 6s 7 9 mph 1016.7mb 78f 77f
7:50 2.5ft 9s 6s 4 7 mph 1016.4mb 79f 77f
6:50 2.5ft 8s 6s 4 7 mph 1016.3mb 79f 78f
5:50 2.5ft 8s 6s 7 7 mph 1016.1mb 79f 78f
4:50 2.5ft 8s 6s 9 9 mph 1015.9mb 79f 78f
3:50 3ft 9s 5s 11 11 mph 1015.8mb 79f 77f
2:50 2.5ft 9s 6s 11 13 mph 1016.2mb 79f 77f
1:50 3.5ft 8s 6s 9 9 mph 1016.5mb 79f 78f
12:50 3ft 8s 6s 9 9 mph 1016.3mb 79f 77f
11:50 3.5ft 9s 7s 7 9 mph 1016.1mb 79f 77f
10:50 3.5ft 11s 7s 7 9 mph 1016.2mb 78f 77f
9:50 4ft 10s 7s 9 11 mph 1015.5mb 78f 77f
8:50 4.5ft 10s 7s 9 11 mph 1015mb 78f 77f
7:50 5ft 10s 8s 7 7 mph 1014.5mb 78f 77f
6:50 5ft 11s 8s 7 9 mph 1014mb 78f 76f
5:50 5ft 12s 8s 13 16 mph 1013.4mb 79f 77f
3:50 4.5ft 11s 7s 7 7 mph 1012.5mb 79f 77f
2:50 5ft 11s 7s 4 4 mph 1012.3mb 79f 78f
1:50 4.5ft 9s 7s 2 4 mph 1012.4mb 79f 79f
12:50 5ft 10s 7s 4 4 mph 1013mb 79f 79f
Di 08/15 11:50 5.5ft 11s 7s 2 4 mph 1012.4mb 79f 79f
10:50 6.5ft 11s 8s 4 7 mph 1012.2mb 80f 79f
9:50 6.5ft 10s 8s 7 7 mph 1012mb 80f 79f
8:50 6.5ft 12s 8s 4 9 mph 1011.7mb 80f 79f
7:50 7ft 11s 9s 7 9 mph 1011.6mb 81f 80f
6:50 7.5ft 12s 9s 7 9 mph 1011.8mb 81f 80f
5:50 7ft 11s 9s 4 7 mph 1011.9mb 81f 80f
4:50 8ft 12s 10s 4 7 mph 1011.5mb 81f 80f
3:50 6ft 12s 8s 4 7 mph 1010.9mb 81f 80f
2:50 7ft 12s 9s 4 7 mph 1011.7mb 80f 80f
1:50 7ft 12s 9s 4 7 mph 1012.2mb 80f 80f
12:50 6ft 13s 9s 2 4 mph 1012.9mb 79f 79f
11:50 7ft 12s 9s 4 7 mph 1013.3mb 78f 79f